Terminal Aerodrome Forecast
Issued by NWS Sterling, VA

Current Version | Previous Version | Text Only | Print | Product List | Glossary Off
Versions: 1 2 3 4 5 6 7 8 9 10 11 12 13 14 15 16 17 18 19 20 21 22 23 24 25

000
FTUS41 KLWX 212000 AAA
TAFDCA
TAF AMD
KDCA 212058Z 2121/2218 33007KT 6SM -SHRA BKN050
     FM220300 33008KT P6SM OVC025
     FM220600 34008KT 3SM -SHRA SCT008 OVC015
     FM221200 34011G18KT P6SM SCT008 OVC015
     FM221500 34014G23KT P6SM OVC015=

USA.gov is the U.S. government's official web portal to all federal, state and local government web resources and services.